Time;durP1;ratioP1;P1;durP2;ratioP2;P2;SDS_P1;SDS_P2;PMS_P1;PMS_P2;Temp;Humidity;BMP_temperature;BMP_pressure;BME280_temperature;BME280_humidity;BME280_pressure;Samples;Min_cycle;Max_cycle;Signal;HPM_P1;HPM_P2
2023/12/27 00:00:20;;;;;;;0.20;0.00;;;;;;;;;;5021550;28;20080;-85
2023/12/27 00:02:52;;;;;;;;;;;;;;;;;;5028935;28;20738;-84
2023/12/27 00:05:21;;;;;;;0.20;0.00;;;;;;;;;;5062030;28;19916;-85
2023/12/27 00:07:50;;;;;;;0.20;0.10;;;;;;;;;;5053809;28;20041;-84
2023/12/27 00:10:21;;;;;;;1.25;0.60;;;;;;;;;;5064301;28;20109;-84
2023/12/27 00:12:55;;;;;;;0.20;0.00;;;;;;;;;;5049397;28;20070;-84
2023/12/27 00:15:27;;;;;;;0.20;0.00;;;;;;;;;;5047686;28;20504;-84
2023/12/27 00:17:59;;;;;;;0.22;0.05;;;;;;;;;;5070948;28;20069;-84
2023/12/27 00:20:25;;;;;;;0.20;0.00;;;;;;;;;;5049358;28;20047;-83
2023/12/27 00:22:54;;;;;;;0.20;0.10;;;;;;;;;;5068707;28;20471;-84
2023/12/27 00:25:42;;;;;;;0.20;0.05;;;;;;;;;;5051821;28;20042;-83
2023/12/27 00:28:20;;;;;;;0.20;0.10;;;;;;;;;;5045676;28;20055;-84
2023/12/27 00:31:01;;;;;;;0.20;0.10;;;;;;;;;;5062558;28;20047;-84
2023/12/27 00:33:39;;;;;;;0.20;0.05;;;;;;;;;;5071620;28;20071;-84
2023/12/27 00:36:19;;;;;;;0.20;0.10;;;;;;;;;;5068953;28;20122;-83
2023/12/27 00:38:45;;;;;;;0.20;0.00;;;;;;;;;;5049179;28;20044;-85
2023/12/27 00:41:39;;;;;;;;;;;;;;;;;;;;;
2023/12/27 00:44:41;;;;;;;0.20;0.00;;;;;;;;;;5066884;28;20048;-83
2023/12/27 00:47:19;;;;;;;0.20;0.10;;;;;;;;;;5054187;28;20052;-84
2023/12/27 00:50:09;;;;;;;0.20;0.00;;;;;;;;;;5020431;28;20049;-85
2023/12/27 00:52:57;;;;;;;0.20;0.00;;;;;;;;;;5081965;28;20047;-85
2023/12/27 00:55:26;;;;;;;0.20;0.10;;;;;;;;;;5055624;28;20039;-84
2023/12/27 00:57:55;;;;;;;0.20;0.10;;;;;;;;;;5051365;28;20082;-84
2023/12/27 01:00:35;;;;;;;0.20;0.00;;;;;;;;;;5051171;28;20082;-83
2023/12/27 01:03:12;;;;;;;0.20;0.00;;;;;;;;;;5050926;28;20306;-84
2023/12/27 01:05:39;;;;;;;0.20;0.00;;;;;;;;;;5069247;28;20039;-84
2023/12/27 01:08:19;;;;;;;0.20;0.00;;;;;;;;;;5053431;28;20092;-84
2023/12/27 01:11:03;;;;;;;0.20;0.10;;;;;;;;;;5057599;28;20048;-84
2023/12/27 01:13:44;;;;;;;;;;;;;;;;;;;;;
2023/12/27 01:16:16;;;;;;;0.20;0.00;;;;;;;;;;5068285;28;20098;-83
2023/12/27 01:18:50;;;;;;;0.20;0.00;;;;;;;;;;5055979;28;20768;-84
2023/12/27 01:21:21;;;;;;;0.20;0.00;;;;;;;;;;5054573;28;20044;-84
2023/12/27 01:26:26;;;;;;;0.55;0.55;;;;;;;;;;4888782;26;20032;-80
2023/12/27 01:28:52;;;;;;;0.20;0.00;;;;;;;;;;5066537;28;20088;-81
2023/12/27 01:31:18;;;;;;;0.20;0.10;;;;;;;;;;5046945;28;20040;-81
2023/12/27 01:33:44;;;;;;;0.20;0.08;;;;;;;;;;5050900;28;20029;-80
2023/12/27 01:36:11;;;;;;;0.20;0.10;;;;;;;;;;5045650;28;20219;-81
2023/12/27 01:38:37;;;;;;;0.20;0.00;;;;;;;;;;5014071;28;20060;-81
2023/12/27 01:41:03;;;;;;;0.20;0.10;;;;;;;;;;5029704;28;20049;-81
2023/12/27 01:43:29;;;;;;;0.20;0.03;;;;;;;;;;5015345;28;20045;-81
2023/12/27 01:45:55;;;;;;;0.20;0.10;;;;;;;;;;5016715;28;20033;-80
2023/12/27 01:48:21;;;;;;;0.20;0.05;;;;;;;;;;5035134;28;20085;-80
2023/12/27 01:50:48;;;;;;;0.20;0.03;;;;;;;;;;5049210;28;20069;-81
2023/12/27 01:53:14;;;;;;;0.20;0.10;;;;;;;;;;5010198;28;20041;-80
2023/12/27 01:55:40;;;;;;;0.20;0.00;;;;;;;;;;5050804;28;20114;-81
2023/12/27 01:58:08;;;;;;;0.20;0.00;;;;;;;;;;5034191;28;20030;-81
2023/12/27 02:00:37;;;;;;;0.20;0.10;;;;;;;;;;5036097;28;20356;-81
2023/12/27 02:03:03;;;;;;;0.20;0.00;;;;;;;;;;5050853;28;20025;-80
2023/12/27 02:05:30;;;;;;;0.20;0.10;;;;;;;;;;5048392;28;20046;-81
2023/12/27 02:07:57;;;;;;;0.20;0.10;;;;;;;;;;5015639;28;20072;-81
2023/12/27 02:10:23;;;;;;;0.20;0.10;;;;;;;;;;5049860;28;20037;-81
2023/12/27 02:12:49;;;;;;;0.20;0.00;;;;;;;;;;5014827;28;20033;-81
2023/12/27 02:15:15;;;;;;;0.20;0.00;;;;;;;;;;5017785;28;20037;-81
2023/12/27 02:17:42;;;;;;;0.20;0.10;;;;;;;;;;5053679;28;20056;-81
2023/12/27 02:20:09;;;;;;;0.20;0.00;;;;;;;;;;5034779;28;20049;-81
2023/12/27 02:22:36;;;;;;;0.20;0.08;;;;;;;;;;5030606;28;20117;-81
2023/12/27 02:25:02;;;;;;;0.20;0.05;;;;;;;;;;5034055;28;20049;-81
2023/12/27 02:27:28;;;;;;;0.20;0.00;;;;;;;;;;5033834;28;20053;-80
2023/12/27 02:29:54;;;;;;;0.20;0.10;;;;;;;;;;5018857;28;20053;-81
2023/12/27 02:32:20;;;;;;;0.20;0.10;;;;;;;;;;5049377;28;20021;-81
2023/12/27 02:34:46;;;;;;;0.20;0.10;;;;;;;;;;5050399;28;20029;-81
2023/12/27 02:37:12;;;;;;;0.20;0.05;;;;;;;;;;5018831;28;20049;-80
2023/12/27 02:39:38;;;;;;;0.20;0.05;;;;;;;;;;5053145;28;20032;-81
2023/12/27 02:42:04;;;;;;;0.20;0.00;;;;;;;;;;5051011;28;20060;-80
2023/12/27 02:44:30;;;;;;;0.20;0.03;;;;;;;;;;5051843;28;20116;-81
2023/12/27 02:46:56;;;;;;;0.20;0.08;;;;;;;;;;5032393;28;20053;-81
2023/12/27 02:49:22;;;;;;;0.20;0.00;;;;;;;;;;5049986;28;20041;-80
2023/12/27 02:51:48;;;;;;;0.20;0.10;;;;;;;;;;5052562;28;20028;-81
2023/12/27 02:54:14;;;;;;;0.20;0.00;;;;;;;;;;5033260;28;20037;-80
2023/12/27 02:56:40;;;;;;;0.20;0.00;;;;;;;;;;5033177;28;20084;-80
2023/12/27 02:59:08;;;;;;;0.20;0.00;;;;;;;;;;5018469;28;20112;-80
2023/12/27 03:01:35;;;;;;;0.20;0.10;;;;;;;;;;5033736;28;20088;-80
2023/12/27 03:04:01;;;;;;;0.20;0.00;;;;;;;;;;5049836;28;20029;-81
2023/12/27 03:06:27;;;;;;;0.20;0.00;;;;;;;;;;5015592;28;20048;-80
2023/12/27 03:08:53;;;;;;;0.20;0.00;;;;;;;;;;5052208;28;20040;-80
2023/12/27 03:11:19;;;;;;;0.20;0.10;;;;;;;;;;5051121;28;20045;-80
2023/12/27 03:13:46;;;;;;;0.20;0.00;;;;;;;;;;5016908;28;20033;-80
2023/12/27 03:16:12;;;;;;;0.20;0.10;;;;;;;;;;5034803;28;20040;-81
2023/12/27 03:18:39;;;;;;;0.20;0.00;;;;;;;;;;5018853;28;20053;-81
2023/12/27 03:21:05;;;;;;;0.20;0.10;;;;;;;;;;5017129;28;20029;-81
2023/12/27 03:23:31;;;;;;;0.20;0.10;;;;;;;;;;5050166;28;20041;-80
2023/12/27 03:25:57;;;;;;;0.20;0.00;;;;;;;;;;5031650;28;20045;-80
2023/12/27 03:28:23;;;;;;;0.20;0.08;;;;;;;;;;5018145;28;20033;-81
2023/12/27 03:30:49;;;;;;;0.20;0.10;;;;;;;;;;5051354;28;20030;-81
2023/12/27 03:33:15;;;;;;;0.20;0.10;;;;;;;;;;5052073;28;20101;-80
2023/12/27 03:35:41;;;;;;;0.20;0.10;;;;;;;;;;5050252;28;20037;-80
2023/12/27 03:38:08;;;;;;;0.20;0.00;;;;;;;;;;5016194;28;20033;-80
2023/12/27 03:40:34;;;;;;;0.20;0.10;;;;;;;;;;5049088;28;20097;-80
2023/12/27 03:43:00;;;;;;;0.20;0.00;;;;;;;;;;5051528;28;20241;-81
2023/12/27 03:45:26;;;;;;;0.20;0.10;;;;;;;;;;5048950;28;20044;-81
2023/12/27 03:47:53;;;;;;;0.20;0.13;;;;;;;;;;5048336;28;20085;-80
2023/12/27 03:50:19;;;;;;;0.20;0.10;;;;;;;;;;5032626;28;20057;-81
2023/12/27 03:52:45;;;;;;;0.20;0.10;;;;;;;;;;5049754;28;20025;-80
2023/12/27 03:55:11;;;;;;;0.20;0.10;;;;;;;;;;5013896;28;20041;-81
2023/12/27 03:57:37;;;;;;;0.20;0.10;;;;;;;;;;5027421;28;20057;-80
2023/12/27 04:00:04;;;;;;;0.30;0.20;;;;;;;;;;5050872;28;20050;-80
2023/12/27 04:02:30;;;;;;;0.63;0.63;;;;;;;;;;5049910;28;20045;-81
2023/12/27 04:04:56;;;;;;;0.20;0.00;;;;;;;;;;5044287;28;20051;-80
2023/12/27 04:07:22;;;;;;;0.20;0.10;;;;;;;;;;5049665;28;20072;-81
2023/12/27 04:09:48;;;;;;;0.20;0.10;;;;;;;;;;5049011;28;20053;-80
2023/12/27 04:12:14;;;;;;;0.20;0.10;;;;;;;;;;5049358;28;20041;-81
2023/12/27 04:14:40;;;;;;;0.20;0.00;;;;;;;;;;5046188;28;20060;-81
2023/12/27 04:17:06;;;;;;;0.20;0.00;;;;;;;;;;5049292;28;20072;-80
2023/12/27 04:19:32;;;;;;;0.20;0.00;;;;;;;;;;5013237;28;20033;-81
2023/12/27 04:21:58;;;;;;;0.20;0.10;;;;;;;;;;5031798;28;21340;-80
2023/12/27 04:24:24;;;;;;;0.20;0.05;;;;;;;;;;5044976;28;20048;-80
2023/12/27 04:26:50;;;;;;;0.20;0.10;;;;;;;;;;5047283;28;20049;-81
2023/12/27 04:29:16;;;;;;;0.20;0.00;;;;;;;;;;5046979;28;20036;-81
2023/12/27 04:31:42;;;;;;;0.20;0.10;;;;;;;;;;5029805;28;20052;-80
2023/12/27 04:34:08;;;;;;;0.20;0.10;;;;;;;;;;5027198;28;20042;-81
2023/12/27 04:36:36;;;;;;;0.20;0.10;;;;;;;;;;5044802;28;20056;-83
2023/12/27 04:39:02;;;;;;;0.20;0.00;;;;;;;;;;5011656;28;20048;-81
2023/12/27 04:41:28;;;;;;;0.20;0.10;;;;;;;;;;5044086;28;20076;-81
2023/12/27 04:43:54;;;;;;;0.20;0.00;;;;;;;;;;5014543;28;20054;-81
2023/12/27 04:46:20;;;;;;;0.20;0.10;;;;;;;;;;5049580;28;20057;-81
2023/12/27 04:48:46;;;;;;;0.20;0.10;;;;;;;;;;5015198;28;20026;-80
2023/12/27 04:51:13;;;;;;;0.20;0.10;;;;;;;;;;5018153;28;20041;-80
2023/12/27 04:53:39;;;;;;;0.30;0.20;;;;;;;;;;5051260;28;20032;-81
2023/12/27 04:56:05;;;;;;;0.40;0.40;;;;;;;;;;5043988;28;20057;-82
2023/12/27 04:58:35;;;;;;;0.20;0.10;;;;;;;;;;5013312;28;20081;-81
2023/12/27 05:01:02;;;;;;;0.20;0.00;;;;;;;;;;5031496;28;20122;-80
2023/12/27 05:03:29;;;;;;;0.20;0.00;;;;;;;;;;5028160;28;20049;-81
2023/12/27 05:05:55;;;;;;;0.20;0.00;;;;;;;;;;5031441;28;20037;-81
2023/12/27 05:08:21;;;;;;;0.20;0.10;;;;;;;;;;5014511;28;20026;-81
2023/12/27 05:10:47;;;;;;;0.20;0.05;;;;;;;;;;5032131;28;20048;-80
2023/12/27 05:13:13;;;;;;;0.20;0.10;;;;;;;;;;5029092;28;20025;-81
2023/12/27 05:15:39;;;;;;;0.20;0.10;;;;;;;;;;5011551;28;21090;-80
2023/12/27 05:18:05;;;;;;;0.20;0.10;;;;;;;;;;5046779;28;20059;-81
2023/12/27 05:20:31;;;;;;;0.20;0.00;;;;;;;;;;5030269;28;20072;-81
2023/12/27 05:22:57;;;;;;;0.20;0.10;;;;;;;;;;5044407;28;20088;-80
2023/12/27 05:25:23;;;;;;;0.20;0.05;;;;;;;;;;5047778;28;20053;-81
2023/12/27 05:27:49;;;;;;;0.20;0.10;;;;;;;;;;5027701;28;20032;-82
2023/12/27 05:30:16;;;;;;;0.20;0.00;;;;;;;;;;5052277;28;20049;-81
2023/12/27 05:32:42;;;;;;;0.30;0.20;;;;;;;;;;5054375;28;20037;-81
2023/12/27 05:35:09;;;;;;;0.20;0.10;;;;;;;;;;5052507;28;20048;-82
2023/12/27 05:37:35;;;;;;;0.93;0.22;;;;;;;;;;5049130;28;20081;-80
2023/12/27 05:40:01;;;;;;;0.20;0.00;;;;;;;;;;5048386;28;20033;-82
2023/12/27 05:42:27;;;;;;;0.20;0.10;;;;;;;;;;5031168;28;20056;-82
2023/12/27 05:44:53;;;;;;;0.20;0.10;;;;;;;;;;5050610;28;20045;-81
2023/12/27 05:47:19;;;;;;;0.20;0.00;;;;;;;;;;5034738;28;20026;-82
2023/12/27 05:49:45;;;;;;;0.20;0.00;;;;;;;;;;5014639;28;20045;-82
2023/12/27 05:52:11;;;;;;;0.20;0.10;;;;;;;;;;5052028;28;20049;-81
2023/12/27 05:54:37;;;;;;;0.20;0.10;;;;;;;;;;5050068;28;20030;-82
2023/12/27 05:57:03;;;;;;;0.20;0.00;;;;;;;;;;5051697;28;20064;-80
2023/12/27 05:59:29;;;;;;;0.20;0.10;;;;;;;;;;5031937;28;20037;-81
2023/12/27 06:01:55;;;;;;;0.20;0.10;;;;;;;;;;5051476;28;20041;-81
2023/12/27 06:04:22;;;;;;;0.20;0.00;;;;;;;;;;5030152;28;20057;-82
2023/12/27 06:06:52;;;;;;;0.20;0.00;;;;;;;;;;5050521;28;20059;-82
2023/12/27 06:09:18;;;;;;;0.20;0.05;;;;;;;;;;5017226;28;20040;-82
2023/12/27 06:11:44;;;;;;;0.20;0.00;;;;;;;;;;5048629;28;20061;-81
2023/12/27 06:14:10;;;;;;;0.20;0.00;;;;;;;;;;5032599;28;20608;-81
2023/12/27 06:16:36;;;;;;;0.20;0.10;;;;;;;;;;5051340;28;20065;-81
2023/12/27 06:19:02;;;;;;;0.20;0.10;;;;;;;;;;5048474;28;20064;-82
2023/12/27 06:21:29;;;;;;;0.20;0.10;;;;;;;;;;5034274;28;20063;-81
2023/12/27 06:23:55;;;;;;;0.20;0.10;;;;;;;;;;5030222;28;20052;-81
2023/12/27 06:26:22;;;;;;;0.20;0.10;;;;;;;;;;5015473;28;20037;-82
2023/12/27 06:28:48;;;;;;;0.20;0.10;;;;;;;;;;5032571;28;20049;-81
2023/12/27 06:31:14;;;;;;;0.20;0.00;;;;;;;;;;5044153;28;20061;-81
2023/12/27 06:33:40;;;;;;;0.20;0.00;;;;;;;;;;5051702;28;20044;-81
2023/12/27 06:36:07;;;;;;;0.20;0.00;;;;;;;;;;5032714;28;20099;-82
2023/12/27 06:38:33;;;;;;;0.20;0.00;;;;;;;;;;5047704;28;20052;-81
2023/12/27 06:41:00;;;;;;;0.20;0.00;;;;;;;;;;5013536;28;20033;-81
2023/12/27 06:43:27;;;;;;;0.20;0.20;;;;;;;;;;5016881;28;20228;-81
2023/12/27 06:45:53;;;;;;;0.20;0.00;;;;;;;;;;5028535;28;20026;-82
2023/12/27 06:48:19;;;;;;;0.20;0.10;;;;;;;;;;5031500;28;20045;-82
2023/12/27 06:50:45;;;;;;;0.20;0.00;;;;;;;;;;5029411;28;20048;-82
2023/12/27 06:53:11;;;;;;;0.20;0.10;;;;;;;;;;5042166;28;20061;-83
2023/12/27 06:55:37;;;;;;;0.20;0.20;;;;;;;;;;5045627;28;20046;-82
2023/12/27 06:58:04;;;;;;;0.20;0.03;;;;;;;;;;5046334;28;20072;-81
2023/12/27 07:00:30;;;;;;;0.20;0.00;;;;;;;;;;5049799;28;20025;-83
2023/12/27 07:02:56;;;;;;;0.20;0.00;;;;;;;;;;5048406;28;20049;-83
2023/12/27 07:05:22;;;;;;;0.20;0.00;;;;;;;;;;5032326;28;20508;-83
2023/12/27 07:07:48;;;;;;;0.20;0.10;;;;;;;;;;5045839;28;20041;-81
2023/12/27 07:10:14;;;;;;;0.20;0.00;;;;;;;;;;5032212;28;20087;-82
2023/12/27 07:12:40;;;;;;;0.20;0.00;;;;;;;;;;5035907;28;20045;-82
2023/12/27 07:15:11;;;;;;;0.20;0.00;;;;;;;;;;5026803;28;20061;-82
2023/12/27 07:17:37;;;;;;;0.20;0.00;;;;;;;;;;5031012;28;20053;-82
2023/12/27 07:20:03;;;;;;;0.20;0.00;;;;;;;;;;5049231;28;20049;-82
2023/12/27 07:22:29;;;;;;;0.20;0.00;;;;;;;;;;5026216;28;20033;-83
2023/12/27 07:25:04;;;;;;;1.27;0.52;;;;;;;;;;5037194;22;20046;-86
2023/12/27 07:27:33;;;;;;;0.20;0.10;;;;;;;;;;5009512;28;20057;-85
2023/12/27 07:33:19;;;;;;;0.20;0.10;;;;;;;;;;5014295;28;20037;-86
2023/12/27 07:35:48;;;;;;;0.20;0.10;;;;;;;;;;5001145;28;20749;-85
2023/12/27 07:38:25;;;;;;;0.20;0.00;;;;;;;;;;4989366;28;20132;-86
2023/12/27 07:40:58;;;;;;;0.20;0.00;;;;;;;;;;4995857;28;20038;-85
2023/12/27 07:43:27;;;;;;;0.20;0.08;;;;;;;;;;4995663;28;20250;-86
2023/12/27 07:45:53;;;;;;;0.20;0.10;;;;;;;;;;4997202;28;20482;-85
2023/12/27 07:51:17;;;;;;;0.20;0.10;;;;;;;;;;4975654;28;20163;-85
2023/12/27 07:53:55;;;;;;;0.20;0.10;;;;;;;;;;4999511;28;20038;-85
2023/12/27 07:56:24;;;;;;;0.20;0.03;;;;;;;;;;4996751;28;20044;-85
2023/12/27 07:59:17;;;;;;;0.28;0.10;;;;;;;;;;4993783;28;20046;-88
2023/12/27 08:02:14;;;;;;;;;;;;;;;;;;;;;
2023/12/27 08:05:02;;;;;;;0.20;0.10;;;;;;;;;;4997477;28;20046;-85
2023/12/27 08:07:48;;;;;;;0.20;0.00;;;;;;;;;;4991494;28;20026;-85
2023/12/27 08:10:32;;;;;;;;;;;;;;;;;;;;;
2023/12/27 08:13:37;;;;;;;0.20;0.10;;;;;;;;;;5015188;28;20790;-86
2023/12/27 08:16:10;;;;;;;0.20;0.10;;;;;;;;;;4998615;28;20465;-84
2023/12/27 08:18:53;;;;;;;0.20;0.00;;;;;;;;;;4995402;28;20099;-86
2023/12/27 08:21:19;;;;;;;0.63;0.52;;;;;;;;;;4997398;28;20093;-85
2023/12/27 08:23:49;;;;;;;0.20;0.00;;;;;;;;;;5018507;28;20069;-85
2023/12/27 08:29:36;;;;;;;0.20;0.10;;;;;;;;;;4988142;28;19919;-85
2023/12/27 08:32:03;;;;;;;1.00;0.95;;;;;;;;;;4994560;28;20087;-85
2023/12/27 08:34:32;;;;;;;0.20;0.00;;;;;;;;;;5008809;28;20042;-85
2023/12/27 08:37:04;;;;;;;0.20;0.00;;;;;;;;;;5007713;28;20046;-85
2023/12/27 08:39:38;;;;;;;0.20;0.00;;;;;;;;;;5009577;28;20473;-84
2023/12/27 08:42:16;;;;;;;0.20;0.00;;;;;;;;;;4990815;28;20056;-85
2023/12/27 08:45:02;;;;;;;0.20;0.10;;;;;;;;;;4991906;28;20063;-85
2023/12/27 08:47:38;;;;;;;0.20;0.20;;;;;;;;;;4993562;28;20046;-85
2023/12/27 08:50:34;;;;;;;0.20;0.10;;;;;;;;;;4989391;28;20042;-85
2023/12/27 08:53:03;;;;;;;0.20;0.00;;;;;;;;;;4983433;28;20038;-86
2023/12/27 08:56:00;;;;;;;0.20;0.10;;;;;;;;;;4996222;28;20042;-86
2023/12/27 09:01:53;;;;;;;0.20;0.00;;;;;;;;;;5003638;28;20049;-85
2023/12/27 09:04:31;;;;;;;0.20;0.00;;;;;;;;;;5003600;28;20766;-85
2023/12/27 09:07:06;;;;;;;0.20;0.00;;;;;;;;;;5001501;28;20136;-86
2023/12/27 09:09:59;;;;;;;0.20;0.00;;;;;;;;;;4993729;28;20065;-85
2023/12/27 09:12:28;;;;;;;0.20;0.10;;;;;;;;;;4993539;28;20045;-86
2023/12/27 09:15:07;;;;;;;0.22;0.13;;;;;;;;;;4987404;28;20053;-86
2023/12/27 09:17:39;;;;;;;0.20;0.08;;;;;;;;;;4992523;28;20632;-86
2023/12/27 09:20:34;;;;;;;4.57;1.65;;;;;;;;;;5005863;28;20258;-87
2023/12/27 09:23:12;;;;;;;0.20;0.10;;;;;;;;;;5006298;28;20136;-85
2023/12/27 09:26:08;;;;;;;0.20;0.00;;;;;;;;;;5007121;28;20160;-85
2023/12/27 09:28:34;;;;;;;0.20;0.00;;;;;;;;;;4989717;28;20072;-86
2023/12/27 09:34:24;;;;;;;0.20;0.00;;;;;;;;;;5004644;28;20608;-85
2023/12/27 09:37:03;;;;;;;0.20;0.00;;;;;;;;;;5004832;28;20053;-87
2023/12/27 09:39:47;;;;;;;0.20;0.10;;;;;;;;;;5000107;28;20522;-85
2023/12/27 09:42:17;;;;;;;0.20;0.10;;;;;;;;;;5008218;28;20049;-84
2023/12/27 09:44:46;;;;;;;0.20;0.10;;;;;;;;;;5007519;28;20038;-85
2023/12/27 09:47:28;;;;;;;0.20;0.10;;;;;;;;;;5007764;28;20062;-85
2023/12/27 09:50:12;;;;;;;20.38;0.70;;;;;;;;;;5007099;28;20438;-85
2023/12/27 09:52:48;;;;;;;0.20;0.00;;;;;;;;;;4990391;28;20026;-85
2023/12/27 09:55:23;;;;;;;0.20;0.08;;;;;;;;;;5011742;28;20132;-85
2023/12/27 09:58:28;;;;;;;0.20;0.10;;;;;;;;;;5011119;28;20056;-85
2023/12/27 10:01:10;;;;;;;0.20;0.00;;;;;;;;;;4981051;28;20042;-85
2023/12/27 10:03:53;;;;;;;0.20;0.00;;;;;;;;;;4988327;28;20054;-85
2023/12/27 10:06:43;;;;;;;0.20;0.10;;;;;;;;;;5007592;28;20203;-85
2023/12/27 10:09:19;;;;;;;0.20;0.00;;;;;;;;;;4992977;28;20038;-85
2023/12/27 10:15:46;;;;;;;0.20;0.08;;;;;;;;;;4972139;28;20134;-85
2023/12/27 10:18:20;;;;;;;0.20;0.10;;;;;;;;;;4935225;28;20047;-87
2023/12/27 10:21:18;;;;;;;1.35;0.57;;;;;;;;;;5005363;28;20106;-86
2023/12/27 10:24:48;;;;;;;0.45;0.32;;;;;;;;;;5008440;28;20076;-86
2023/12/27 10:27:27;;;;;;;;;;;;;;;;;;;;;
2023/12/27 10:33:14;;;;;;;0.20;0.00;;;;;;;;;;5002009;28;20565;-85
2023/12/27 10:35:51;;;;;;;0.20;0.00;;;;;;;;;;5009070;28;20170;-86
2023/12/27 10:38:44;;;;;;;0.20;0.10;;;;;;;;;;5005269;28;20486;-87
2023/12/27 10:41:24;;;;;;;0.20;0.10;;;;;;;;;;4995379;28;20053;-85
2023/12/27 10:44:11;;;;;;;0.20;0.20;;;;;;;;;;5015562;28;20033;-86
2023/12/27 10:47:22;;;;;;;0.20;0.00;;;;;;;;;;5004052;28;20065;-85
2023/12/27 10:53:23;;;;;;;0.20;0.10;;;;;;;;;;4935254;28;20040;-85
2023/12/27 10:58:48;;;;;;;0.20;0.20;;;;;;;;;;5022316;28;20570;-86
2023/12/27 11:01:41;;;;;;;0.20;0.10;;;;;;;;;;5012624;28;20100;-85
2023/12/27 11:07:40;;;;;;;0.20;0.00;;;;;;;;;;5009871;28;20045;-85
2023/12/27 11:10:06;;;;;;;0.20;0.10;;;;;;;;;;5036311;22;20053;-82
2023/12/27 11:12:33;;;;;;;0.20;0.10;;;;;;;;;;5018400;28;20042;-82
2023/12/27 11:15:02;;;;;;;0.20;0.10;;;;;;;;;;5019596;28;20034;-82
2023/12/27 11:17:30;;;;;;;0.20;0.10;;;;;;;;;;5036175;28;20524;-83
2023/12/27 11:19:56;;;;;;;0.20;0.17;;;;;;;;;;5034189;28;20366;-81
2023/12/27 11:22:23;;;;;;;0.40;0.40;;;;;;;;;;5001970;28;20041;-83
2023/12/27 11:24:49;;;;;;;0.20;0.10;;;;;;;;;;5019773;28;20049;-83
2023/12/27 11:27:18;;;;;;;0.20;0.00;;;;;;;;;;5020437;28;20053;-83
2023/12/27 11:29:45;;;;;;;0.90;0.30;;;;;;;;;;5005838;28;20045;-84
2023/12/27 11:32:11;;;;;;;0.20;0.00;;;;;;;;;;5026978;28;20053;-84
2023/12/27 11:34:38;;;;;;;0.20;0.00;;;;;;;;;;5001620;28;20049;-84
2023/12/27 11:37:04;;;;;;;0.20;0.10;;;;;;;;;;5008875;28;20044;-83
2023/12/27 11:39:30;;;;;;;0.20;0.00;;;;;;;;;;5017555;28;20061;-83
2023/12/27 11:41:58;;;;;;;0.20;0.10;;;;;;;;;;4999802;28;20208;-83
2023/12/27 11:44:24;;;;;;;0.20;0.05;;;;;;;;;;5026063;28;20037;-83
2023/12/27 11:46:50;;;;;;;0.20;0.00;;;;;;;;;;5018819;28;20046;-85
2023/12/27 11:49:19;;;;;;;0.20;0.10;;;;;;;;;;5012666;28;20065;-84
2023/12/27 11:51:46;;;;;;;1.95;0.57;;;;;;;;;;4992257;28;20498;-84
2023/12/27 11:54:20;;;;;;;0.20;0.10;;;;;;;;;;4991575;28;20045;-84
2023/12/27 11:56:46;;;;;;;0.20;0.10;;;;;;;;;;5002881;28;20049;-84
2023/12/27 11:59:12;;;;;;;0.20;0.00;;;;;;;;;;5002931;28;20037;-82
2023/12/27 12:01:40;;;;;;;0.20;0.00;;;;;;;;;;4998540;28;20108;-83
2023/12/27 12:04:15;;;;;;;0.30;0.25;;;;;;;;;;4998724;28;20796;-85
2023/12/27 12:07:00;;;;;;;0.50;0.20;;;;;;;;;;5004510;28;20045;-83
2023/12/27 12:09:30;;;;;;;0.20;0.00;;;;;;;;;;5018615;28;20042;-84
2023/12/27 12:11:56;;;;;;;0.20;0.10;;;;;;;;;;5020433;28;20111;-82
2023/12/27 12:14:23;;;;;;;0.20;0.10;;;;;;;;;;5017567;28;20470;-83
2023/12/27 12:16:50;;;;;;;0.20;0.00;;;;;;;;;;5014492;28;20038;-85
2023/12/27 12:19:18;;;;;;;0.20;0.10;;;;;;;;;;4998271;28;20179;-84
2023/12/27 12:21:46;;;;;;;0.20;0.00;;;;;;;;;;5007246;28;20042;-83
2023/12/27 12:24:14;;;;;;;0.20;0.08;;;;;;;;;;5009843;28;20069;-83
2023/12/27 12:26:41;;;;;;;0.20;0.00;;;;;;;;;;4997891;28;20109;-82
2023/12/27 12:29:08;;;;;;;0.20;0.00;;;;;;;;;;5027988;28;20110;-82
2023/12/27 12:31:35;;;;;;;0.20;0.00;;;;;;;;;;5013661;28;20556;-83
2023/12/27 12:34:01;;;;;;;0.20;0.00;;;;;;;;;;5001425;28;20097;-83
2023/12/27 12:36:27;;;;;;;0.20;0.10;;;;;;;;;;5018539;28;20079;-83
2023/12/27 12:38:53;;;;;;;0.20;0.00;;;;;;;;;;5001970;28;20049;-83
2023/12/27 12:41:19;;;;;;;0.30;0.20;;;;;;;;;;5000814;28;20076;-83
2023/12/27 12:43:45;;;;;;;0.20;0.10;;;;;;;;;;5015838;28;20136;-84
2023/12/27 12:46:13;;;;;;;0.20;0.00;;;;;;;;;;5013494;28;20117;-84
2023/12/27 12:48:40;;;;;;;0.20;0.08;;;;;;;;;;5013231;28;20279;-82
2023/12/27 12:51:10;;;;;;;0.20;0.10;;;;;;;;;;4999399;28;20056;-83
2023/12/27 12:53:36;;;;;;;0.20;0.00;;;;;;;;;;5004578;28;20039;-86
2023/12/27 12:56:02;;;;;;;0.30;0.17;;;;;;;;;;4997040;28;20042;-83
2023/12/27 12:58:28;;;;;;;0.20;0.15;;;;;;;;;;5008187;28;20050;-84
2023/12/27 13:00:55;;;;;;;0.20;0.00;;;;;;;;;;4992395;28;20044;-84
2023/12/27 13:03:21;;;;;;;0.20;0.00;;;;;;;;;;4994056;28;20046;-83
2023/12/27 13:05:48;;;;;;;0.28;0.15;;;;;;;;;;5017307;28;20084;-85
2023/12/27 13:08:15;;;;;;;0.20;0.10;;;;;;;;;;4991656;28;20042;-85
2023/12/27 13:10:41;;;;;;;0.20;0.00;;;;;;;;;;4995442;28;20086;-85
2023/12/27 13:13:08;;;;;;;0.20;0.00;;;;;;;;;;5012863;28;20116;-84
2023/12/27 13:15:34;;;;;;;0.20;0.00;;;;;;;;;;4994946;28;20041;-85
2023/12/27 13:18:00;;;;;;;0.32;0.20;;;;;;;;;;5013334;28;20049;-84
2023/12/27 13:20:26;;;;;;;0.20;0.00;;;;;;;;;;5010795;28;20124;-84
2023/12/27 13:22:52;;;;;;;0.43;0.43;;;;;;;;;;4988542;28;20057;-83
2023/12/27 13:25:19;;;;;;;0.20;0.05;;;;;;;;;;5010476;28;20046;-85
2023/12/27 13:27:45;;;;;;;0.20;0.10;;;;;;;;;;4995463;28;20514;-85
2023/12/27 13:30:11;;;;;;;0.20;0.00;;;;;;;;;;5013278;28;20050;-86
2023/12/27 13:32:37;;;;;;;0.20;0.00;;;;;;;;;;4989199;28;20054;-82
2023/12/27 13:35:04;;;;;;;0.20;0.10;;;;;;;;;;4988552;28;20077;-82
2023/12/27 13:37:30;;;;;;;0.20;0.10;;;;;;;;;;5002722;28;20057;-83
2023/12/27 13:39:56;;;;;;;0.25;0.13;;;;;;;;;;5005373;28;20113;-84
2023/12/27 13:42:24;;;;;;;0.20;0.10;;;;;;;;;;4994714;28;20135;-84
2023/12/27 13:44:50;;;;;;;0.40;0.38;;;;;;;;;;4990251;28;20566;-85
2023/12/27 13:47:16;;;;;;;0.47;0.38;;;;;;;;;;5012853;28;20104;-84
2023/12/27 13:49:43;;;;;;;0.20;0.10;;;;;;;;;;5018393;28;20042;-84
2023/12/27 13:52:12;;;;;;;0.20;0.10;;;;;;;;;;4992010;28;21280;-84
2023/12/27 13:54:40;;;;;;;0.20;0.00;;;;;;;;;;4995395;28;20129;-84
2023/12/27 13:57:08;;;;;;;0.20;0.10;;;;;;;;;;5001698;28;20056;-84
2023/12/27 13:59:37;;;;;;;0.20;0.10;;;;;;;;;;5000165;28;20044;-84
2023/12/27 14:02:03;;;;;;;0.85;0.57;;;;;;;;;;4984765;28;20053;-83
2023/12/27 14:04:46;;;;;;;0.40;0.40;;;;;;;;;;4995131;28;20034;-84
2023/12/27 14:07:17;;;;;;;0.20;0.00;;;;;;;;;;5010679;28;20045;-84
2023/12/27 14:09:46;;;;;;;0.22;0.08;;;;;;;;;;5013546;28;20041;-83
2023/12/27 14:12:13;;;;;;;0.20;0.10;;;;;;;;;;4997489;28;20030;-85
2023/12/27 14:14:39;;;;;;;0.20;0.00;;;;;;;;;;5029926;28;20049;-83
2023/12/27 14:17:08;;;;;;;0.20;0.10;;;;;;;;;;5000794;28;20445;-83
2023/12/27 14:19:34;;;;;;;0.45;0.28;;;;;;;;;;5032392;28;20049;-84
2023/12/27 14:22:06;;;;;;;0.20;0.10;;;;;;;;;;5014395;28;20076;-84
2023/12/27 14:24:34;;;;;;;0.20;0.00;;;;;;;;;;4986900;28;20034;-83
2023/12/27 14:27:03;;;;;;;0.20;0.00;;;;;;;;;;4993316;28;20050;-85
2023/12/27 14:29:29;;;;;;;0.20;0.00;;;;;;;;;;5016865;28;20103;-84
2023/12/27 14:31:55;;;;;;;0.20;0.00;;;;;;;;;;4997240;28;20042;-84
2023/12/27 14:34:21;;;;;;;0.20;0.00;;;;;;;;;;4999278;28;20037;-85
2023/12/27 14:36:47;;;;;;;2.50;0.40;;;;;;;;;;4994050;28;20038;-83
2023/12/27 14:39:13;;;;;;;0.20;0.10;;;;;;;;;;4999260;28;20033;-84
2023/12/27 14:41:45;;;;;;;0.20;0.00;;;;;;;;;;5006814;28;20048;-85
2023/12/27 14:44:18;;;;;;;0.20;0.00;;;;;;;;;;4998178;28;20046;-85
2023/12/27 14:46:44;;;;;;;0.30;0.25;;;;;;;;;;5003531;28;20121;-85
2023/12/27 14:49:10;;;;;;;0.20;0.10;;;;;;;;;;4996920;28;20034;-84
2023/12/27 14:51:40;;;;;;;0.20;0.00;;;;;;;;;;5019184;28;20033;-85
2023/12/27 14:54:08;;;;;;;0.20;0.00;;;;;;;;;;4996971;28;20045;-85
2023/12/27 14:56:34;;;;;;;0.20;0.10;;;;;;;;;;4997692;28;20245;-85
2023/12/27 14:59:00;;;;;;;0.20;0.10;;;;;;;;;;5008813;28;20042;-88
2023/12/27 15:01:26;;;;;;;0.20;0.00;;;;;;;;;;5013162;28;20094;-84
2023/12/27 15:03:53;;;;;;;0.20;0.10;;;;;;;;;;5012608;28;20038;-83
2023/12/27 15:06:22;;;;;;;0.20;0.10;;;;;;;;;;4995100;28;20048;-83
2023/12/27 15:08:48;;;;;;;0.20;0.10;;;;;;;;;;4994530;28;20054;-84
2023/12/27 15:11:15;;;;;;;0.20;0.00;;;;;;;;;;5012740;28;20034;-84
2023/12/27 15:13:41;;;;;;;0.20;0.00;;;;;;;;;;4999041;28;20084;-85
2023/12/27 15:16:08;;;;;;;0.20;0.10;;;;;;;;;;4991625;28;20042;-83
2023/12/27 15:18:41;;;;;;;0.20;0.00;;;;;;;;;;4994896;28;20050;-83
2023/12/27 15:21:15;;;;;;;0.47;0.35;;;;;;;;;;4994390;28;20048;-84
2023/12/27 15:23:44;;;;;;;0.20;0.00;;;;;;;;;;4998951;28;20080;-84
2023/12/27 15:26:22;;;;;;;0.20;0.00;;;;;;;;;;4992956;28;20038;-84
2023/12/27 15:28:50;;;;;;;0.20;0.10;;;;;;;;;;5009670;28;20490;-84
2023/12/27 15:31:28;;;;;;;0.22;0.03;;;;;;;;;;4995123;28;20037;-84
2023/12/27 15:33:58;;;;;;;0.20;0.00;;;;;;;;;;4995298;28;20046;-82
2023/12/27 15:36:25;;;;;;;0.20;0.00;;;;;;;;;;4998063;28;20057;-84
2023/12/27 15:39:00;;;;;;;0.20;0.03;;;;;;;;;;4998190;28;20050;-83
2023/12/27 15:41:36;;;;;;;0.20;0.00;;;;;;;;;;4999404;28;20052;-84